Time;durP1;ratioP1;P1;durP2;ratioP2;P2;SDS_P1;SDS_P2;PMS_P1;PMS_P2;Temp;Humidity;BMP_temperature;BMP_pressure;BME280_temperature;BME280_humidity;BME280_pressure;Samples;Min_cycle;Max_cycle;Signal;HPM_P1;HPM_P2
2022/07/16 00:04:18;;;;;;;10.15;2.60;;;24.10;49.80;;;;;;6106890;28;80468;-69
2022/07/16 00:07:19;;;;;;;4.05;2.45;;;24.10;49.90;;;;;;6110148;28;80447;-66
2022/07/16 00:10:19;;;;;;;6.22;2.33;;;24.10;49.90;;;;;;6104949;28;80314;-66
2022/07/16 00:13:20;;;;;;;4.45;2.55;;;24.10;50.00;;;;;;6109875;28;81376;-67
2022/07/16 00:16:20;;;;;;;3.28;2.20;;;24.10;49.90;;;;;;6110503;28;80301;-67
2022/07/16 00:19:23;;;;;;;5.25;2.40;;;24.10;49.60;;;;;;6111092;28;80402;-67
2022/07/16 00:22:24;;;;;;;4.68;2.50;;;24.10;49.50;;;;;;6116500;28;80864;-67
2022/07/16 00:25:24;;;;;;;3.63;2.10;;;24.10;49.30;;;;;;6110973;28;80332;-67
2022/07/16 00:28:24;;;;;;;12.38;2.80;;;24.10;49.40;;;;;;6113900;28;82007;-67
2022/07/16 00:31:25;;;;;;;5.03;2.65;;;24.00;49.30;;;;;;6114315;28;80716;-66
2022/07/16 00:34:25;;;;;;;4.32;2.92;;;24.00;49.30;;;;;;6118402;28;80513;-67
2022/07/16 00:37:26;;;;;;;9.90;3.38;;;24.10;49.30;;;;;;6113890;28;80434;-67
2022/07/16 00:40:26;;;;;;;4.05;2.70;;;24.00;49.20;;;;;;6110594;28;80479;-68
2022/07/16 00:43:27;;;;;;;5.38;2.70;;;24.00;49.20;;;;;;6116840;28;80543;-66
2022/07/16 00:46:28;;;;;;;6.97;3.10;;;24.00;49.30;;;;;;6110456;28;81544;-66
2022/07/16 00:49:29;;;;;;;5.60;3.22;;;24.00;49.20;;;;;;6111018;28;80115;-66
2022/07/16 00:52:29;;;;;;;6.53;2.90;;;24.00;49.30;;;;;;6109945;28;80379;-66
2022/07/16 00:55:29;;;;;;;4.65;3.00;;;24.00;49.20;;;;;;6111632;28;80389;-66
2022/07/16 00:58:30;;;;;;;7.10;3.25;;;24.00;49.20;;;;;;6095087;28;80954;-66
2022/07/16 01:01:30;;;;;;;5.03;3.15;;;24.00;49.30;;;;;;6108335;28;80325;-66
2022/07/16 01:04:31;;;;;;;9.65;3.33;;;24.00;49.30;;;;;;6104411;28;80438;-68
2022/07/16 01:07:31;;;;;;;5.70;3.03;;;24.00;49.40;;;;;;6114417;28;80634;-68
2022/07/16 01:10:32;;;;;;;7.15;2.50;;;24.00;49.50;;;;;;6107578;28;80355;-68
2022/07/16 01:13:32;;;;;;;9.23;3.42;;;24.00;49.60;;;;;;6104093;28;80455;-68
2022/07/16 01:16:33;;;;;;;3.50;2.70;;;24.00;49.80;;;;;;6110320;28;80571;-68
2022/07/16 01:19:33;;;;;;;6.20;2.72;;;24.00;49.80;;;;;;6110780;28;80619;-67
2022/07/16 01:22:34;;;;;;;4.60;2.70;;;24.00;49.80;;;;;;6109862;28;81363;-66
2022/07/16 01:25:34;;;;;;;4.70;2.65;;;23.90;49.80;;;;;;6110043;28;80621;-68
2022/07/16 01:28:35;;;;;;;5.00;2.85;;;23.90;49.80;;;;;;6110360;28;80308;-68
2022/07/16 01:31:35;;;;;;;5.72;2.58;;;24.00;49.80;;;;;;6114446;28;80605;-67
2022/07/16 01:34:35;;;;;;;6.53;2.67;;;23.90;49.70;;;;;;6109905;28;80597;-68
2022/07/16 01:37:36;;;;;;;5.30;2.90;;;23.90;49.70;;;;;;6119706;28;80373;-68
2022/07/16 01:40:36;;;;;;;3.80;2.67;;;23.90;49.70;;;;;;6111722;28;81864;-68
2022/07/16 01:43:37;;;;;;;6.95;2.95;;;23.90;49.80;;;;;;6113785;28;80356;-69
2022/07/16 01:46:37;;;;;;;5.45;3.13;;;23.90;49.70;;;;;;6115044;28;80130;-66
2022/07/16 01:49:38;;;;;;;4.80;2.88;;;23.90;49.60;;;;;;6124475;28;81569;-66
2022/07/16 01:52:38;;;;;;;10.07;2.45;;;23.90;49.80;;;;;;6113928;28;80880;-66
2022/07/16 01:55:39;;;;;;;8.13;3.60;;;23.90;49.80;;;;;;6113627;28;80495;-66
2022/07/16 01:58:39;;;;;;;5.97;2.75;;;23.90;49.90;;;;;;6113507;28;81006;-68
2022/07/16 02:01:40;;;;;;;8.93;3.50;;;23.90;49.90;;;;;;6102966;28;80189;-68
2022/07/16 02:04:40;;;;;;;7.07;3.13;;;23.90;50.00;;;;;;6105490;28;81057;-68
2022/07/16 02:07:41;;;;;;;4.45;2.63;;;23.90;50.00;;;;;;6094748;28;81003;-68
2022/07/16 02:10:41;;;;;;;4.57;2.55;;;23.80;50.00;;;;;;6086939;28;80448;-67
2022/07/16 02:13:42;;;;;;;5.72;2.50;;;23.80;49.90;;;;;;6093329;28;81834;-67
2022/07/16 02:16:42;;;;;;;5.45;3.00;;;23.80;50.00;;;;;;6099381;28;80517;-68
2022/07/16 02:19:43;;;;;;;7.18;2.67;;;23.90;49.80;;;;;;6124545;28;80337;-67
2022/07/16 02:22:43;;;;;;;3.80;2.17;;;23.90;49.90;;;;;;6112098;28;87755;-68
2022/07/16 02:25:44;;;;;;;5.20;2.90;;;23.90;50.00;;;;;;6104579;28;80555;-68
2022/07/16 02:28:44;;;;;;;6.13;3.17;;;23.80;50.10;;;;;;6109294;28;80351;-69
2022/07/16 02:31:45;;;;;;;10.05;3.10;;;23.80;50.10;;;;;;6110721;28;80349;-69
2022/07/16 02:34:45;;;;;;;4.50;2.42;;;23.80;50.00;;;;;;6101945;28;80722;-67
2022/07/16 02:37:46;;;;;;;9.95;3.38;;;23.80;50.00;;;;;;6108911;28;80373;-66
2022/07/16 02:40:46;;;;;;;5.15;2.88;;;23.80;49.90;;;;;;6112499;28;81444;-66
2022/07/16 02:43:47;;;;;;;4.75;2.60;;;23.80;49.70;;;;;;6104626;28;82080;-67
2022/07/16 02:46:47;;;;;;;4.35;2.47;;;23.80;49.70;;;;;;6125215;28;81710;-67
2022/07/16 02:49:47;;;;;;;4.13;2.65;;;23.80;49.70;;;;;;6119866;28;80374;-67
2022/07/16 02:52:48;;;;;;;6.28;2.97;;;23.80;49.70;;;;;;6112532;28;80594;-67
2022/07/16 02:55:48;;;;;;;9.80;2.75;;;23.80;49.60;;;;;;6117171;28;81373;-67
2022/07/16 02:58:49;;;;;;;5.22;2.70;;;23.80;49.60;;;;;;6113353;28;81960;-68
2022/07/16 03:01:49;;;;;;;5.05;2.70;;;23.80;49.50;;;;;;6109381;28;80406;-67
2022/07/16 03:04:50;;;;;;;6.05;2.53;;;23.80;49.50;;;;;;6107658;28;80294;-67
2022/07/16 03:07:50;;;;;;;3.58;2.50;;;23.80;49.60;;;;;;6109004;28;80352;-67
2022/07/16 03:10:51;;;;;;;7.90;3.10;;;23.80;49.50;;;;;;6112027;28;80932;-68
2022/07/16 03:13:51;;;;;;;3.25;2.55;;;23.80;49.60;;;;;;6112065;28;80930;-68
2022/07/16 03:16:52;;;;;;;7.13;3.35;;;23.80;49.60;;;;;;6117709;28;80492;-67
2022/07/16 03:19:52;;;;;;;4.50;2.85;;;23.80;49.60;;;;;;6107304;28;80593;-66
2022/07/16 03:22:53;;;;;;;7.10;2.80;;;23.80;50.20;;;;;;6111245;28;80350;-65
2022/07/16 03:25:53;;;;;;;4.25;2.83;;;23.80;49.60;;;;;;6109912;28;80619;-66
2022/07/16 03:28:54;;;;;;;5.80;2.97;;;23.70;49.60;;;;;;6110963;28;82479;-66
2022/07/16 03:31:54;;;;;;;8.70;2.88;;;23.80;49.70;;;;;;6111015;28;80599;-67
2022/07/16 03:34:54;;;;;;;7.35;3.28;;;23.70;49.80;;;;;;6101823;28;81792;-66
2022/07/16 03:41:14;;;;;;;5.13;2.58;;;23.80;49.90;;;;;;6107778;28;80346;-66
2022/07/16 03:44:15;;;;;;;6.18;2.90;;;23.80;50.00;;;;;;6104687;28;80252;-66
2022/07/16 03:47:16;;;;;;;4.03;2.40;;;23.80;50.20;;;;;;6107737;28;80552;-66
2022/07/16 03:50:17;;;;;;;5.75;2.83;;;23.80;50.40;;;;;;6099983;28;80341;-66
2022/07/16 03:53:18;;;;;;;6.72;2.80;;;23.70;50.30;;;;;;6102618;28;80264;-66
2022/07/16 03:56:18;;;;;;;4.68;2.80;;;23.70;50.30;;;;;;6109537;28;80399;-68
2022/07/16 03:59:19;;;;;;;4.20;2.55;;;23.80;50.70;;;;;;6099479;28;81094;-70
2022/07/16 04:02:19;;;;;;;6.32;3.10;;;23.80;50.50;;;;;;6111375;28;81098;-76
2022/07/16 04:05:20;;;;;;;5.32;2.80;;;23.90;50.70;;;;;;6110600;28;80440;-68
2022/07/16 04:08:20;;;;;;;4.03;2.08;;;23.90;50.50;;;;;;6107782;28;80609;-64
2022/07/16 04:11:21;;;;;;;4.07;2.60;;;23.90;50.80;;;;;;6103781;28;81440;-69
2022/07/16 04:14:21;;;;;;;6.68;2.78;;;23.90;50.50;;;;;;6108935;28;82098;-72
2022/07/16 04:17:22;;;;;;;7.30;3.00;;;23.90;50.80;;;;;;6108285;28;80186;-70
2022/07/16 04:20:22;;;;;;;7.80;2.47;;;24.00;50.90;;;;;;6083398;28;80777;-65
2022/07/16 04:23:23;;;;;;;6.78;3.60;;;24.00;50.90;;;;;;6099334;28;81729;-64
2022/07/16 04:26:23;;;;;;;4.32;2.53;;;24.00;51.00;;;;;;6098474;28;80841;-64
2022/07/16 04:29:24;;;;;;;8.02;3.05;;;24.00;50.70;;;;;;6107565;28;81408;-64
2022/07/16 04:32:24;;;;;;;6.32;2.88;;;24.00;50.80;;;;;;6100977;28;80619;-65
2022/07/16 04:35:25;;;;;;;5.15;2.65;;;24.00;50.70;;;;;;6104554;28;80453;-64
2022/07/16 04:38:25;;;;;;;8.43;3.15;;;24.00;50.70;;;;;;6094836;28;80948;-64
2022/07/16 04:41:26;;;;;;;5.15;2.47;;;24.00;50.90;;;;;;6113290;28;80136;-68
2022/07/16 04:44:26;;;;;;;9.77;3.05;;;24.00;50.80;;;;;;6109156;28;80755;-65
2022/07/16 04:47:27;;;;;;;5.53;2.63;;;24.00;50.90;;;;;;6097765;28;80574;-65
2022/07/16 04:50:27;;;;;;;4.80;2.58;;;24.10;51.20;;;;;;6115885;28;81691;-63
2022/07/16 04:53:28;;;;;;;6.03;2.50;;;24.00;51.10;;;;;;6109167;28;80790;-66
2022/07/16 04:56:28;;;;;;;5.95;3.50;;;24.00;51.20;;;;;;6097858;28;80560;-64
2022/07/16 04:59:29;;;;;;;6.85;3.28;;;24.10;51.50;;;;;;6101475;28;83600;-65
2022/07/16 05:05:49;;;;;;;3.72;2.45;;;24.10;51.60;;;;;;6111932;28;80455;-64
2022/07/16 05:08:49;;;;;;;7.15;2.67;;;24.10;51.50;;;;;;6113471;28;80883;-63
2022/07/16 05:11:50;;;;;;;13.50;2.55;;;24.10;51.60;;;;;;6100437;28;80193;-64
2022/07/16 05:14:50;;;;;;;6.22;2.83;;;24.10;51.60;;;;;;6106852;28;80372;-64
2022/07/16 05:17:51;;;;;;;8.18;2.83;;;24.10;51.60;;;;;;6105812;28;80632;-65
2022/07/16 05:20:51;;;;;;;7.93;3.45;;;24.10;51.40;;;;;;6111030;28;80890;-66
2022/07/16 05:23:52;;;;;;;10.38;3.08;;;24.10;51.70;;;;;;6108504;28;81311;-66
2022/07/16 05:26:52;;;;;;;7.63;2.95;;;24.20;51.90;;;;;;6111837;28;81136;-65
2022/07/16 05:29:53;;;;;;;3.30;2.13;;;24.20;51.80;;;;;;6121032;28;80652;-66
2022/07/16 05:32:54;;;;;;;4.72;2.42;;;24.30;51.80;;;;;;6109731;28;80825;-65
2022/07/16 05:35:54;;;;;;;11.82;2.30;;;24.30;52.40;;;;;;6112105;28;88105;-67
2022/07/16 05:38:55;;;;;;;9.27;3.00;;;24.30;51.50;;;;;;6119117;28;81502;-66
2022/07/16 05:41:55;;;;;;;7.28;2.65;;;24.30;51.70;;;;;;6115110;28;81994;-65
2022/07/16 05:44:56;;;;;;;5.38;2.38;;;24.30;51.40;;;;;;6118676;28;80954;-63
2022/07/16 05:47:56;;;;;;;5.50;2.42;;;24.30;51.40;;;;;;6121308;28;80242;-69
2022/07/16 05:50:57;;;;;;;6.45;3.00;;;24.30;51.30;;;;;;6105158;28;80764;-66
2022/07/16 05:53:57;;;;;;;8.23;2.63;;;24.20;50.70;;;;;;6109206;28;80579;-67
2022/07/16 05:56:57;;;;;;;5.05;3.08;;;24.10;50.50;;;;;;6100312;28;80637;-70
2022/07/16 05:59:58;;;;;;;7.13;2.58;;;24.00;50.40;;;;;;6106449;28;81338;-68
2022/07/16 06:02:58;;;;;;;8.75;3.22;;;24.00;50.30;;;;;;6109391;28;81219;-72
2022/07/16 06:05:59;;;;;;;11.07;2.60;;;24.00;50.60;;;;;;6111784;28;80628;-70
2022/07/16 06:08:59;;;;;;;5.20;2.75;;;24.00;50.80;;;;;;6110810;28;80351;-69
2022/07/16 06:12:00;;;;;;;4.32;2.30;;;24.10;50.60;;;;;;6111912;28;81824;-70
2022/07/16 06:15:00;;;;;;;10.23;3.72;;;24.00;50.50;;;;;;6098604;28;80009;-69
2022/07/16 06:18:01;;;;;;;6.82;3.38;;;24.00;49.80;;;;;;6106548;28;81340;-71
2022/07/16 06:21:01;;;;;;;8.27;3.55;;;24.00;49.70;;;;;;6128012;28;80958;-68
2022/07/16 06:24:02;;;;;;;6.55;3.38;;;24.10;50.20;;;;;;6109367;28;80293;-76
2022/07/16 06:27:03;;;;;;;6.20;3.28;;;24.00;50.20;;;;;;6109101;28;80114;-67
2022/07/16 06:30:03;;;;;;;9.90;3.45;;;24.10;51.10;;;;;;6112492;28;80455;-71
2022/07/16 06:33:04;;;;;;;5.18;2.90;;;24.10;51.60;;;;;;6098966;28;80663;-76
2022/07/16 06:36:05;;;;;;;10.98;4.00;;;24.10;51.60;;;;;;6124031;28;80811;-64
2022/07/16 06:39:06;;;;;;;4.85;3.13;;;24.00;51.10;;;;;;6134458;28;80214;-64
2022/07/16 06:42:06;;;;;;;11.32;4.15;;;23.80;50.30;;;;;;6122601;28;80555;-63
2022/07/16 06:45:14;;;;;;;9.30;3.83;;;23.80;50.90;;;;;;6104832;28;83286;-62
2022/07/16 06:48:14;;;;;;;8.07;3.67;;;23.90;50.90;;;;;;6109655;28;80875;-64
2022/07/16 06:51:15;;;;;;;22.85;3.97;;;23.90;50.90;;;;;;6110821;28;80605;-65
2022/07/16 06:54:15;;;;;;;40.40;4.40;;;23.80;51.30;;;;;;6110737;28;80877;-63
2022/07/16 06:57:16;;;;;;;10.52;3.03;;;23.80;50.80;;;;;;6109602;28;80342;-64
2022/07/16 07:00:16;;;;;;;8.15;3.00;;;23.80;50.90;;;;;;6102294;28;81034;-65
2022/07/16 07:03:17;;;;;;;6.18;2.85;;;23.90;50.90;;;;;;6130380;28;80507;-64
2022/07/16 07:06:17;;;;;;;7.05;2.97;;;23.80;50.80;;;;;;6110820;28;80537;-64
2022/07/16 07:09:18;;;;;;;5.72;3.05;;;23.50;50.80;;;;;;6111680;28;81434;-67
2022/07/16 07:12:18;;;;;;;7.50;3.25;;;23.20;50.70;;;;;;6109229;28;81348;-63
2022/07/16 07:15:19;;;;;;;11.02;3.15;;;23.30;50.90;;;;;;6109276;28;80207;-71
2022/07/16 07:18:20;;;;;;;6.63;2.78;;;23.40;50.40;;;;;;6102048;28;80770;-65
2022/07/16 07:21:20;;;;;;;4.72;2.75;;;23.10;50.10;;;;;;6108892;28;80440;-64
2022/07/16 07:24:21;;;;;;;6.05;2.85;;;23.20;50.30;;;;;;6103517;28;80747;-64
2022/07/16 07:27:22;;;;;;;7.95;2.63;;;23.10;50.00;;;;;;6114544;28;80690;-65
2022/07/16 07:30:23;;;;;;;4.70;2.72;;;23.20;50.30;;;;;;6099422;28;81502;-65
2022/07/16 07:33:23;;;;;;;3.78;2.10;;;23.30;49.80;;;;;;6105380;28;80618;-70
2022/07/16 07:36:24;;;;;;;7.40;2.00;;;23.20;49.10;;;;;;6106419;28;80548;-68
2022/07/16 07:39:25;;;;;;;6.32;2.65;;;23.20;49.40;;;;;;6112100;28;80747;-70
2022/07/16 07:42:25;;;;;;;7.15;3.00;;;23.40;49.20;;;;;;6111557;28;80829;-69
2022/07/16 07:45:26;;;;;;;5.00;2.55;;;22.90;48.50;;;;;;6111863;28;80364;-72
2022/07/16 07:48:27;;;;;;;6.05;2.75;;;22.70;48.10;;;;;;6108354;28;80860;-71
2022/07/16 07:51:27;;;;;;;6.05;2.38;;;22.60;48.40;;;;;;6111644;28;80606;-72
2022/07/16 07:54:28;;;;;;;5.38;2.20;;;22.60;48.20;;;;;;6100834;28;80560;-64
2022/07/16 07:57:28;;;;;;;5.22;2.50;;;22.60;48.30;;;;;;6090593;28;81528;-63
2022/07/16 08:00:29;;;;;;;6.63;2.58;;;22.90;48.90;;;;;;6107148;28;80653;-66
2022/07/16 08:03:29;;;;;;;7.18;2.35;;;22.90;46.50;;;;;;6110528;28;80413;-65
2022/07/16 08:06:30;;;;;;;4.05;2.05;;;23.10;47.80;;;;;;6106533;28;80521;-66
2022/07/16 08:09:30;;;;;;;9.05;3.25;;;23.30;47.90;;;;;;6097887;28;85658;-66
2022/07/16 08:12:31;;;;;;;5.57;2.70;;;23.40;46.90;;;;;;6111156;28;80842;-64
2022/07/16 08:15:31;;;;;;;7.97;3.22;;;23.40;47.30;;;;;;6101774;28;80944;-65
2022/07/16 08:18:32;;;;;;;7.38;2.35;;;23.50;47.20;;;;;;6112141;28;80586;-65
2022/07/16 08:21:32;;;;;;;8.10;1.95;;;23.40;45.90;;;;;;6117912;28;80736;-65
2022/07/16 08:27:52;;;;;;;3.08;1.52;;;23.40;45.40;;;;;;6090093;28;80544;-64
2022/07/16 08:30:53;;;;;;;3.60;1.88;;;23.40;45.20;;;;;;6110890;28;80642;-64
2022/07/16 08:33:53;;;;;;;4.25;2.15;;;23.50;45.50;;;;;;6109986;28;80429;-64
2022/07/16 08:36:54;;;;;;;4.38;1.67;;;23.40;45.20;;;;;;6108442;28;80246;-64
2022/07/16 08:39:55;;;;;;;8.63;2.33;;;23.30;45.10;;;;;;6121214;28;80878;-64
2022/07/16 08:42:55;;;;;;;6.00;2.50;;;23.40;45.60;;;;;;6123743;28;80384;-64
2022/07/16 08:45:56;;;;;;;5.28;1.92;;;23.60;45.40;;;;;;6107627;28;82236;-65
2022/07/16 08:48:57;;;;;;;3.33;1.60;;;23.80;45.80;;;;;;6113651;28;80308;-65
2022/07/16 08:51:57;;;;;;;4.38;1.48;;;23.70;44.70;;;;;;6108721;28;80636;-65
2022/07/16 08:54:58;;;;;;;6.55;1.80;;;23.50;43.80;;;;;;6110929;28;80476;-66
2022/07/16 08:57:58;;;;;;;2.58;1.55;;;23.50;44.10;;;;;;6100875;28;80529;-65
2022/07/16 09:00:59;;;;;;;4.28;2.13;;;23.10;44.60;;;;;;6111699;28;80998;-65
2022/07/16 09:03:59;;;;;;;8.48;2.15;;;23.20;44.90;;;;;;6104178;28;80573;-64
2022/07/16 09:07:00;;;;;;;16.30;2.72;;;23.50;45.80;;;;;;6099241;28;80657;-64
2022/07/16 09:10:00;;;;;;;27.48;3.45;;;23.70;45.90;;;;;;6098305;28;80721;-63
2022/07/16 09:13:01;;;;;;;4.63;2.40;;;23.70;45.50;;;;;;6098580;28;82292;-62
2022/07/16 09:16:01;;;;;;;8.00;2.15;;;23.80;46.00;;;;;;6105693;28;81143;-62
2022/07/16 09:19:02;;;;;;;11.20;2.03;;;23.90;45.90;;;;;;6100507;28;80351;-62
2022/07/16 09:22:02;;;;;;;7.35;2.38;;;24.00;45.70;;;;;;6099254;28;80741;-65
2022/07/16 09:25:03;;;;;;;5.07;2.72;;;23.80;45.20;;;;;;6123170;28;80878;-63
2022/07/16 09:28:03;;;;;;;6.60;2.63;;;23.80;45.70;;;;;;6110828;28;81516;-63
2022/07/16 09:31:04;;;;;;;19.70;3.35;;;23.80;45.50;;;;;;6116494;28;80121;-65
2022/07/16 09:34:04;;;;;;;4.78;2.40;;;23.50;43.40;;;;;;6108366;28;80912;-63
2022/07/16 09:37:05;;;;;;;6.03;1.90;;;23.50;45.20;;;;;;6112362;28;80481;-64
2022/07/16 09:40:05;;;;;;;6.75;2.28;;;23.70;44.50;;;;;;6119382;28;80446;-63
2022/07/16 09:43:06;;;;;;;6.45;2.20;;;23.80;43.70;;;;;;6121084;28;80344;-64
2022/07/16 09:46:06;;;;;;;4.63;2.22;;;23.90;43.70;;;;;;6121419;28;81885;-63
2022/07/16 09:49:07;;;;;;;3.90;2.28;;;23.90;44.40;;;;;;6109887;28;80313;-69
2022/07/16 09:52:07;;;;;;;4.90;1.83;;;24.00;43.90;;;;;;6106310;28;82089;-68
2022/07/16 09:55:07;;;;;;;6.38;2.08;;;24.10;44.90;;;;;;6109818;28;81720;-74
2022/07/16 09:58:08;;;;;;;5.10;1.85;;;24.10;44.20;;;;;;6111995;28;80663;-64
2022/07/16 10:01:09;;;;;;;4.15;1.80;;;24.00;44.60;;;;;;6106278;28;80495;-64
2022/07/16 10:04:09;;;;;;;4.70;2.00;;;23.70;42.70;;;;;;6101965;28;80395;-64
2022/07/16 10:07:10;;;;;;;7.50;2.42;;;23.80;43.40;;;;;;6103421;28;80415;-64
2022/07/16 10:10:10;;;;;;;36.75;7.93;;;23.80;43.70;;;;;;6112441;28;81434;-64
2022/07/16 10:13:10;;;;;;;30.67;7.75;;;24.00;45.70;;;;;;6111570;28;80398;-63
2022/07/16 10:16:11;;;;;;;38.67;9.48;;;24.10;45.20;;;;;;6110167;28;80786;-63
2022/07/16 10:19:11;;;;;;;50.80;12.35;;;24.10;45.10;;;;;;6110198;28;82089;-64
2022/07/16 10:22:12;;;;;;;39.78;12.43;;;24.20;45.80;;;;;;6105885;28;83331;-65
2022/07/16 10:25:13;;;;;;;42.58;9.40;;;24.30;45.80;;;;;;6104292;28;83067;-64
2022/07/16 10:28:13;;;;;;;21.55;6.03;;;24.30;45.20;;;;;;6111257;28;83504;-71
2022/07/16 10:31:13;;;;;;;9.65;3.00;;;24.30;44.50;;;;;;6095658;28;80769;-64
2022/07/16 10:34:14;;;;;;;5.45;3.33;;;24.30;43.10;;;;;;6095546;28;81917;-74
2022/07/16 10:37:15;;;;;;;8.02;3.15;;;24.30;43.80;;;;;;6104936;28;81372;-63
2022/07/16 10:40:15;;;;;;;6.25;2.42;;;24.00;42.20;;;;;;6105525;28;80429;-64
2022/07/16 10:43:16;;;;;;;3.63;2.25;;;24.10;43.90;;;;;;6112788;28;80266;-64
2022/07/16 10:46:16;;;;;;;8.43;3.03;;;24.20;44.10;;;;;;6106622;28;80811;-62
2022/07/16 10:49:17;;;;;;;3.65;2.13;;;24.30;44.40;;;;;;6103242;28;80587;-62
2022/07/16 10:52:18;;;;;;;6.22;2.53;;;24.30;44.40;;;;;;6107497;28;80689;-62
2022/07/16 10:55:19;;;;;;;10.20;2.67;;;24.40;45.20;;;;;;6107853;28;80643;-62
2022/07/16 10:58:26;;;;;;;14.65;3.78;;;24.40;44.10;;;;;;6106644;28;80571;-61
2022/07/16 11:01:26;;;;;;;12.60;3.70;;;24.50;45.50;;;;;;6104269;28;80463;-63
2022/07/16 11:04:27;;;;;;;7.63;3.38;;;24.60;46.30;;;;;;6111428;28;80397;-63
2022/07/16 11:07:27;;;;;;;7.82;2.92;;;24.60;46.60;;;;;;6106642;28;81349;-60
2022/07/16 11:10:28;;;;;;;5.35;2.20;;;24.70;45.30;;;;;;6097986;28;80312;-60
2022/07/16 11:13:28;;;;;;;6.13;2.30;;;24.70;46.30;;;;;;6105325;28;82071;-61
2022/07/16 11:16:29;;;;;;;6.45;2.10;;;24.70;44.80;;;;;;6108019;28;80517;-61
2022/07/16 11:19:30;;;;;;;4.03;1.92;;;24.70;45.10;;;;;;6111238;28;80534;-62
2022/07/16 11:22:30;;;;;;;7.25;2.70;;;24.70;44.70;;;;;;6106523;28;80511;-62
2022/07/16 11:25:31;;;;;;;6.93;2.30;;;24.80;43.90;;;;;;6106643;28;81969;-62
2022/07/16 11:28:31;;;;;;;6.30;2.38;;;24.70;43.70;;;;;;6109158;28;80458;-62
2022/07/16 11:31:32;;;;;;;5.22;2.05;;;24.70;43.20;;;;;;6102782;28;80404;-61
2022/07/16 11:34:33;;;;;;;2.97;2.30;;;24.70;43.60;;;;;;6107492;28;81516;-62
2022/07/16 11:37:33;;;;;;;7.15;2.78;;;24.70;42.90;;;;;;6107182;28;81658;-62
2022/07/16 11:40:34;;;;;;;6.82;2.78;;;24.60;43.20;;;;;;6124689;28;80423;-62
2022/07/16 11:43:34;;;;;;;3.08;2.20;;;24.60;43.50;;;;;;6111856;28;81950;-62
2022/07/16 11:46:35;;;;;;;5.22;2.40;;;24.40;43.50;;;;;;6116868;28;80407;-62
2022/07/16 11:49:36;;;;;;;3.33;1.95;;;24.40;43.40;;;;;;6108007;28;80603;-62
2022/07/16 11:52:37;;;;;;;4.28;2.15;;;24.50;43.60;;;;;;6108635;28;83424;-67
2022/07/16 11:55:37;;;;;;;4.88;2.15;;;24.60;44.30;;;;;;6111102;28;80918;-63
2022/07/16 11:58:37;;;;;;;8.02;3.53;;;24.60;44.30;;;;;;6110470;28;80334;-63
2022/07/16 12:01:38;;;;;;;5.70;2.22;;;24.50;44.10;;;;;;6109823;28;80613;-63
2022/07/16 12:04:39;;;;;;;9.05;2.30;;;24.50;44.20;;;;;;6114793;28;82744;-63
2022/07/16 12:07:39;;;;;;;5.28;2.28;;;24.40;43.70;;;;;;6120201;28;80210;-62
2022/07/16 12:10:40;;;;;;;4.72;2.33;;;24.40;44.10;;;;;;6106512;28;80537;-62
2022/07/16 12:13:40;;;;;;;9.93;2.47;;;24.30;43.50;;;;;;6110610;28;80630;-62
2022/07/16 12:16:41;;;;;;;4.72;2.40;;;24.30;43.90;;;;;;6110663;28;80506;-62
2022/07/16 12:19:41;;;;;;;5.45;2.28;;;24.40;43.80;;;;;;6109692;28;80430;-62
2022/07/16 12:22:41;;;;;;;6.15;2.42;;;24.30;44.10;;;;;;6105479;28;80535;-68
2022/07/16 12:25:42;;;;;;;5.13;2.30;;;24.40;44.50;;;;;;6106412;28;80455;-65
2022/07/16 12:28:42;;;;;;;4.45;2.03;;;24.40;44.70;;;;;;6109703;28;80539;-63
2022/07/16 12:31:43;;;;;;;7.05;2.15;;;24.40;44.80;;;;;;6109283;28;80727;-64
2022/07/16 12:34:43;;;;;;;15.55;2.00;;;24.40;44.80;;;;;;6110020;28;81257;-64
2022/07/16 12:37:44;;;;;;;11.23;2.53;;;24.40;44.60;;;;;;6106025;28;80734;-63
2022/07/16 12:40:44;;;;;;;7.53;2.05;;;24.40;44.00;;;;;;6108423;28;81751;-64
2022/07/16 12:43:47;;;;;;;4.78;2.13;;;24.20;44.20;;;;;;6096331;28;80803;-64
2022/07/16 12:46:48;;;;;;;3.58;1.90;;;24.30;44.00;;;;;;6122133;28;80332;-64
2022/07/16 12:49:49;;;;;;;2.97;1.90;;;24.30;44.10;;;;;;6107368;28;80919;-63
2022/07/16 12:52:49;;;;;;;2.70;2.03;;;24.30;44.20;;;;;;6107557;28;80852;-63
2022/07/16 12:59:09;;;;;;;3.20;1.73;;;24.30;44.70;;;;;;6109216;28;81685;-64
2022/07/16 13:02:09;;;;;;;7.13;2.25;;;24.30;44.70;;;;;;6113102;28;81550;-63
2022/07/16 13:05:10;;;;;;;5.20;2.00;;;24.40;44.70;;;;;;6111922;28;80763;-64
2022/07/16 13:08:10;;;;;;;5.78;1.90;;;24.40;45.00;;;;;;6119434;28;80242;-64
2022/07/16 13:11:11;;;;;;;4.25;2.33;;;24.30;44.80;;;;;;6108761;28;80203;-64
2022/07/16 13:14:11;;;;;;;7.90;2.13;;;24.30;45.20;;;;;;6108618;28;81526;-63
2022/07/16 13:17:12;;;;;;;4.28;2.28;;;24.30;45.30;;;;;;6108507;28;80747;-63
2022/07/16 13:20:13;;;;;;;4.80;2.05;;;24.20;44.90;;;;;;6115737;28;80531;-63
2022/07/16 13:23:14;;;;;;;7.28;1.98;;;24.10;44.70;;;;;;6110423;28;80043;-64
2022/07/16 13:26:14;;;;;;;4.50;1.80;;;24.10;45.00;;;;;;6112900;28;80195;-64
2022/07/16 13:29:15;;;;;;;4.45;2.28;;;24.20;45.00;;;;;;6105106;28;82378;-64
2022/07/16 13:32:15;;;;;;;4.60;2.20;;;24.20;45.00;;;;;;6122959;28;82491;-64
2022/07/16 13:35:16;;;;;;;3.38;1.88;;;24.10;45.20;;;;;;6114665;28;80819;-64
2022/07/16 13:38:16;;;;;;;5.75;2.50;;;24.20;45.40;;;;;;6113212;28;80683;-63
2022/07/16 13:41:18;;;;;;;6.15;2.65;;;24.10;45.70;;;;;;6112618;28;80734;-64
2022/07/16 13:44:19;;;;;;;7.32;2.85;;;24.20;45.60;;;;;;6098984;28;80217;-64
2022/07/16 13:47:19;;;;;;;5.70;2.45;;;24.20;45.60;;;;;;6104287;28;80337;-63
2022/07/16 13:50:20;;;;;;;4.40;2.80;;;24.20;45.70;;;;;;6100864;28;80490;-63
2022/07/16 13:53:20;;;;;;;7.78;2.53;;;24.10;45.80;;;;;;6094944;28;80910;-63
2022/07/16 13:56:21;;;;;;;5.70;2.20;;;24.20;46.40;;;;;;6101394;28;80311;-63
2022/07/16 13:59:22;;;;;;;7.65;2.33;;;24.20;46.40;;;;;;6112699;28;80740;-63
2022/07/16 14:02:22;;;;;;;5.60;2.63;;;24.10;46.60;;;;;;6113526;28;80185;-63
2022/07/16 14:05:23;;;;;;;5.45;2.60;;;24.00;46.60;;;;;;6107759;28;81574;-63
2022/07/16 14:08:24;;;;;;;2.90;2.03;;;24.00;46.70;;;;;;6104536;28;80560;-64
2022/07/16 14:11:24;;;;;;;4.82;2.10;;;24.00;46.80;;;;;;6110329;28;80597;-63
2022/07/16 14:14:25;;;;;;;8.35;2.58;;;24.10;46.60;;;;;;6112912;28;80314;-63
2022/07/16 14:17:25;;;;;;;6.88;2.67;;;24.10;46.70;;;;;;6111178;28;82036;-63
2022/07/16 14:20:26;;;;;;;8.80;2.50;;;24.20;46.70;;;;;;6123735;28;80606;-63
2022/07/16 14:23:29;;;;;;;4.75;2.55;;;24.30;46.70;;;;;;6096688;28;80612;-63
2022/07/16 14:26:29;;;;;;;2.63;1.95;;;24.30;46.60;;;;;;6098375;28;81345;-63
2022/07/16 14:29:30;;;;;;;12.55;2.38;;;24.30;46.70;;;;;;6105186;28;80432;-63
2022/07/16 14:32:30;;;;;;;6.00;2.22;;;24.30;46.20;;;;;;6113003;28;80483;-64
2022/07/16 14:35:31;;;;;;;8.40;2.90;;;24.30;46.40;;;;;;6097324;28;80932;-63
2022/07/16 14:38:31;;;;;;;5.10;2.17;;;24.30;46.40;;;;;;6114351;28;80691;-64
2022/07/16 14:41:31;;;;;;;4.30;2.38;;;24.40;46.40;;;;;;6110807;28;80629;-63
2022/07/16 14:44:32;;;;;;;4.65;2.60;;;24.40;46.40;;;;;;6112083;28;80408;-63
2022/07/16 14:47:32;;;;;;;3.10;2.35;;;24.40;46.40;;;;;;6116869;28;81315;-63
2022/07/16 14:50:33;;;;;;;6.63;2.10;;;24.30;46.10;;;;;;6124655;28;80791;-63
2022/07/16 14:53:34;;;;;;;7.53;2.58;;;24.40;46.10;;;;;;6116274;28;80750;-63
2022/07/16 14:56:37;;;;;;;3.60;2.00;;;24.30;45.30;;;;;;6110726;28;80385;-63
2022/07/16 14:59:37;;;;;;;3.13;2.30;;;24.30;45.90;;;;;;6111645;28;82842;-64
2022/07/16 15:02:38;;;;;;;4.40;2.00;;;24.40;45.70;;;;;;6111872;28;81774;-63
2022/07/16 15:05:38;;;;;;;8.18;2.58;;;24.40;45.70;;;;;;6112263;28;80725;-63
2022/07/16 15:08:39;;;;;;;5.97;2.63;;;24.30;45.90;;;;;;6113588;28;81819;-63
2022/07/16 15:11:39;;;;;;;5.57;2.20;;;24.40;46.10;;;;;;6124424;28;80790;-63
2022/07/16 15:14:40;;;;;;;3.08;2.20;;;24.30;46.10;;;;;;6113072;28;80081;-63
2022/07/16 15:17:40;;;;;;;5.47;2.30;;;24.40;46.00;;;;;;6111711;28;80348;-63
2022/07/16 15:20:41;;;;;;;9.60;2.65;;;24.40;45.90;;;;;;6111607;28;80409;-63
2022/07/16 15:23:41;;;;;;;3.42;2.15;;;24.30;45.80;;;;;;6111385;28;80713;-63
2022/07/16 15:26:42;;;;;;;8.05;2.30;;;24.40;45.60;;;;;;6111182;28;80537;-63
2022/07/16 15:29:43;;;;;;;3.95;1.92;;;24.40;45.70;;;;;;6106444;28;81122;-64
2022/07/16 15:32:43;;;;;;;4.65;2.40;;;24.40;45.40;;;;;;6101980;28;80511;-63
2022/07/16 15:35:44;;;;;;;8.73;2.65;;;24.40;45.40;;;;;;6119808;28;81084;-63
2022/07/16 15:38:44;;;;;;;4.78;2.17;;;24.30;46.00;;;;;;6122515;28;80413;-64
2022/07/16 15:41:45;;;;;;;4.60;2.20;;;24.30;45.30;;;;;;6115404;28;80491;-64
2022/07/16 15:44:45;;;;;;;5.30;1.92;;;24.30;45.10;;;;;;6112734;28;80399;-63
2022/07/16 15:47:46;;;;;;;5.60;2.90;;;24.30;44.80;;;;;;6110365;28;80464;-64
2022/07/16 15:50:46;;;;;;;3.67;1.95;;;24.30;45.00;;;;;;6104214;28;80732;-64
2022/07/16 15:53:47;;;;;;;4.95;1.80;;;24.30;45.20;;;;;;6122058;28;81856;-64